Time;durP1;ratioP1;P1;durP2;ratioP2;P2;SDS_P1;SDS_P2;PMS_P1;PMS_P2;Temp;Humidity;BMP_temperature;BMP_pressure;BME280_temperature;BME280_humidity;BME280_pressure;Samples;Min_cycle;Max_cycle;Signal;HPM_P1;HPM_P2
2022/01/03 00:01:24;;;;;;;9.73;2.17;;;;;;;6.52;100.00;100369.13;5052452;28;20119;-51
2022/01/03 00:03:49;;;;;;;11.32;1.80;;;;;;;6.50;100.00;100366.63;5065562;28;20044;-53
2022/01/03 00:06:15;;;;;;;15.98;1.65;;;;;;;6.43;100.00;100364.84;5063555;28;20044;-50
2022/01/03 00:08:43;;;;;;;10.18;1.45;;;;;;;6.38;100.00;100373.25;5065716;28;20029;-52
2022/01/03 00:11:11;;;;;;;7.82;1.77;;;;;;;6.39;100.00;100367.00;5064582;28;20033;-54
2022/01/03 00:13:44;;;;;;;10.20;1.85;;;;;;;6.39;100.00;100374.91;5054633;28;20054;-51
2022/01/03 00:16:10;;;;;;;12.32;2.20;;;;;;;6.33;100.00;100365.03;5064195;28;20115;-53
2022/01/03 00:18:36;;;;;;;11.00;2.60;;;;;;;6.24;100.00;100364.19;5062978;28;20036;-50
2022/01/03 00:21:06;;;;;;;4.07;1.13;;;;;;;6.17;100.00;100365.88;5061721;28;20128;-49
2022/01/03 00:23:36;;;;;;;15.27;1.88;;;;;;;6.15;100.00;100367.84;5066628;28;20113;-52
2022/01/03 00:26:02;;;;;;;21.17;3.15;;;;;;;6.10;100.00;100368.31;5063480;28;20032;-54
2022/01/03 00:28:34;;;;;;;6.13;0.90;;;;;;;6.16;100.00;100366.84;5060606;28;20394;-50
2022/01/03 00:31:00;;;;;;;10.40;1.75;;;;;;;6.13;100.00;100375.06;5066520;28;20067;-52
2022/01/03 00:33:27;;;;;;;7.93;0.68;;;;;;;6.16;100.00;100379.19;5064449;28;20041;-51
2022/01/03 00:35:59;;;;;;;14.95;1.50;;;;;;;6.19;100.00;100374.41;5064286;28;20078;-51
2022/01/03 00:38:29;;;;;;;7.88;1.67;;;;;;;6.25;100.00;100373.75;5063244;28;20025;-55
2022/01/03 00:40:55;;;;;;;12.60;1.10;;;;;;;6.29;100.00;100375.06;5064005;28;20051;-50
2022/01/03 00:43:21;;;;;;;8.32;1.48;;;;;;;6.36;100.00;100377.88;5059055;28;20269;-54
2022/01/03 00:45:50;;;;;;;9.65;1.25;;;;;;;6.27;100.00;100370.94;5063466;28;20051;-55
2022/01/03 00:48:15;;;;;;;18.63;3.28;;;;;;;6.23;100.00;100370.47;5059711;28;20060;-54
2022/01/03 00:50:41;;;;;;;11.90;2.05;;;;;;;6.22;100.00;100374.09;5063141;28;20059;-52
2022/01/03 00:53:06;;;;;;;9.57;2.92;;;;;;;6.30;100.00;100373.28;5059960;28;20399;-52
2022/01/03 00:55:32;;;;;;;11.00;2.30;;;;;;;6.31;100.00;100367.81;5063797;28;20062;-53
2022/01/03 00:58:07;;;;;;;7.57;2.40;;;;;;;6.27;100.00;100369.16;5061981;28;20098;-51
2022/01/03 01:00:36;;;;;;;4.38;1.17;;;;;;;6.26;100.00;100374.56;5060688;28;20025;-48
2022/01/03 01:03:18;;;;;;;17.90;3.88;;;;;;;6.28;100.00;100370.78;5059501;28;20063;-53
2022/01/03 01:05:50;;;;;;;;;;;;;;;6.33;100.00;100363.22;5063645;28;20024;-52
2022/01/03 01:08:23;;;;;;;10.27;1.85;;;;;;;6.36;100.00;100363.88;5059979;28;19931;-52
2022/01/03 01:10:52;;;;;;;15.27;2.28;;;;;;;6.38;100.00;100368.00;5064004;28;20033;-51
2022/01/03 01:13:20;;;;;;;9.43;1.08;;;;;;;6.33;100.00;100367.66;5063223;28;20028;-50
2022/01/03 01:15:45;;;;;;;13.65;2.42;;;;;;;6.40;100.00;100367.81;5064936;28;20040;-50
2022/01/03 01:18:11;;;;;;;8.32;1.85;;;;;;;6.39;100.00;100363.53;5058378;28;20445;-54
2022/01/03 01:20:39;;;;;;;14.40;1.50;;;;;;;6.39;100.00;100368.81;5064960;28;20054;-54
2022/01/03 01:23:06;;;;;;;12.52;2.80;;;;;;;6.36;100.00;100369.16;5057627;28;20041;-51
2022/01/03 01:28:04;;;;;;;11.10;1.35;;;;;;;6.40;100.00;100366.03;5062052;28;20028;-55
2022/01/03 01:30:29;;;;;;;13.52;1.65;;;;;;;6.39;100.00;100355.63;5063064;28;20060;-52
2022/01/03 01:33:10;;;;;;;23.02;4.57;;;;;;;6.41;100.00;100365.03;5056942;28;20071;-51
2022/01/03 01:35:41;;;;;;;18.85;3.45;;;;;;;6.38;100.00;100362.72;5057953;28;20166;-53
2022/01/03 01:38:09;;;;;;;11.02;1.42;;;;;;;6.42;100.00;100357.94;5059315;28;20027;-52
2022/01/03 01:40:43;;;;;;;10.15;1.00;;;;;;;6.40;100.00;100360.75;5065033;28;20082;-50
2022/01/03 01:43:11;;;;;;;6.00;1.67;;;;;;;6.41;100.00;100365.03;5063171;28;20385;-48
2022/01/03 01:45:39;;;;;;;11.70;1.50;;;;;;;6.43;100.00;100365.69;5059878;28;20072;-54
2022/01/03 01:48:07;;;;;;;6.75;1.13;;;;;;;6.50;100.00;100365.81;5060135;28;20101;-50
2022/01/03 01:50:35;;;;;;;15.80;2.15;;;;;;;6.45;100.00;100373.41;5064865;28;20032;-51
2022/01/03 01:53:05;;;;;;;13.15;2.90;;;;;;;6.45;100.00;100365.50;5059270;28;20024;-49
2022/01/03 01:55:31;;;;;;;5.38;1.27;;;;;;;6.54;100.00;100372.41;5064660;28;20051;-51
2022/01/03 01:58:03;;;;;;;13.00;1.50;;;;;;;6.58;100.00;100370.25;5060819;28;20040;-51
2022/01/03 02:00:31;;;;;;;16.67;1.65;;;;;;;6.51;100.00;100370.94;5047584;28;20041;-51
2022/01/03 02:03:10;;;;;;;9.02;2.25;;;;;;;6.54;100.00;100364.50;5058540;28;20083;-50
2022/01/03 02:05:53;;;;;;;12.10;1.95;;;;;;;6.57;100.00;100368.63;5065169;28;20111;-54
2022/01/03 02:08:33;;;;;;;10.25;4.72;;;;;;;6.54;100.00;100364.50;5065403;28;20123;-51
2022/01/03 02:11:12;;;;;;;7.63;1.65;;;;;;;6.48;100.00;100357.25;5061569;28;20066;-53
2022/01/03 02:13:39;;;;;;;9.43;1.70;;;;;;;6.51;100.00;100357.75;5058942;28;20068;-51
2022/01/03 02:16:04;;;;;;;10.82;2.00;;;;;;;6.51;100.00;100354.31;5061412;28;20025;-53
2022/01/03 02:18:31;;;;;;;11.52;2.22;;;;;;;6.42;100.00;100369.28;5055029;28;20301;-55
2022/01/03 02:20:58;;;;;;;20.58;2.25;;;;;;;6.51;100.00;100368.31;5057908;28;20424;-49
2022/01/03 02:23:24;;;;;;;12.65;2.53;;;;;;;6.44;100.00;100359.41;5064453;28;20037;-50
2022/01/03 02:25:49;;;;;;;9.63;2.90;;;;;;;6.36;100.00;100356.81;5056561;28;20037;-52
2022/01/03 02:28:20;;;;;;;3.67;0.88;;;;;;;6.22;100.00;100368.84;5055777;28;20032;-53
2022/01/03 02:30:46;;;;;;;8.67;2.03;;;;;;;6.21;100.00;100364.53;5049590;28;20048;-52
2022/01/03 02:33:12;;;;;;;10.77;1.73;;;;;;;6.20;100.00;100360.28;5062407;28;20171;-51
2022/01/03 02:35:41;;;;;;;12.43;2.05;;;;;;;6.19;100.00;100357.78;5056325;28;20505;-48
2022/01/03 02:38:08;;;;;;;12.13;3.33;;;;;;;6.21;100.00;100358.47;5052852;28;20037;-52
2022/01/03 02:40:33;;;;;;;11.77;2.75;;;;;;;6.22;100.00;100352.19;5059414;28;20444;-54
2022/01/03 02:42:59;;;;;;;10.82;2.38;;;;;;;6.24;100.00;100353.66;5056022;28;20237;-52
2022/01/03 02:45:25;;;;;;;6.30;1.10;;;;;;;6.32;100.00;100347.56;5056389;28;20576;-51
2022/01/03 02:47:57;;;;;;;10.43;1.85;;;;;;;6.22;100.00;100346.91;5059065;28;20032;-55
2022/01/03 02:50:25;;;;;;;9.45;2.33;;;;;;;6.15;100.00;100348.59;5061794;28;20085;-55
2022/01/03 02:52:50;;;;;;;15.70;2.70;;;;;;;6.15;100.00;100346.78;5056542;28;20501;-54
2022/01/03 02:55:17;;;;;;;16.33;2.70;;;;;;;6.20;100.00;100346.28;5057828;28;20032;-54
2022/01/03 02:57:47;;;;;;;9.13;3.17;;;;;;;6.26;100.00;100356.97;5056466;28;20025;-49
2022/01/03 03:00:17;;;;;;;14.20;2.60;;;;;;;6.32;100.00;100344.94;5051364;28;20500;-51
2022/01/03 03:02:43;;;;;;;12.30;1.58;;;;;;;6.31;100.00;100343.31;5058340;28;20115;-52
2022/01/03 03:05:09;;;;;;;10.80;3.15;;;;;;;6.26;100.00;100345.63;5057461;28;20112;-51
2022/01/03 03:07:35;;;;;;;17.70;3.25;;;;;;;6.30;100.00;100354.84;5061559;28;20032;-50
2022/01/03 03:10:05;;;;;;;12.13;2.53;;;;;;;6.37;100.00;100341.81;5058164;28;20032;-53
2022/01/03 03:12:30;;;;;;;11.05;2.08;;;;;;;6.36;100.00;100346.25;5061933;28;20037;-50
2022/01/03 03:14:55;;;;;;;10.55;1.73;;;;;;;6.33;100.00;100341.34;5057187;28;20042;-50
2022/01/03 03:17:21;;;;;;;8.77;1.77;;;;;;;6.37;100.00;100340.00;5059944;28;20405;-55
2022/01/03 03:19:55;;;;;;;7.50;1.33;;;;;;;6.39;100.00;100339.84;5064827;28;20036;-51
2022/01/03 03:22:22;;;;;;;3.72;0.90;;;;;;;6.42;100.00;100334.22;5059523;28;20037;-53
2022/01/03 03:24:48;;;;;;;16.55;2.38;;;;;;;6.45;100.00;100334.72;5048783;28;20032;-51
2022/01/03 03:27:13;;;;;;;9.82;1.95;;;;;;;6.39;100.00;100322.22;5061297;28;20029;-52
2022/01/03 03:29:50;;;;;;;20.42;2.50;;;;;;;6.30;100.00;100325.88;5058662;28;20039;-50
2022/01/03 03:32:17;;;;;;;16.08;3.10;;;;;;;6.37;100.00;100326.81;5057480;28;20497;-53
2022/01/03 03:34:45;;;;;;;14.48;2.90;;;;;;;6.48;100.00;100323.88;5062594;28;20029;-50
2022/01/03 03:37:10;;;;;;;12.25;1.48;;;;;;;6.57;100.00;100324.66;5063490;28;20500;-50
2022/01/03 03:39:36;;;;;;;8.32;3.33;;;;;;;6.59;100.00;100322.69;5059842;28;20036;-52
2022/01/03 03:42:03;;;;;;;5.65;1.13;;;;;;;6.57;100.00;100324.66;5058035;28;20047;-55
2022/01/03 03:44:29;;;;;;;9.32;0.80;;;;;;;6.64;100.00;100325.63;5064765;28;20029;-53
2022/01/03 03:46:54;;;;;;;10.73;2.53;;;;;;;6.70;100.00;100324.94;5063290;28;20534;-50
2022/01/03 03:49:20;;;;;;;4.47;1.00;;;;;;;6.68;100.00;100320.84;5062225;28;20029;-52
2022/01/03 03:51:45;;;;;;;5.32;1.55;;;;;;;6.75;100.00;100319.16;5054662;28;20064;-51
2022/01/03 03:54:10;;;;;;;12.65;2.03;;;;;;;6.78;100.00;100311.72;5058167;28;20060;-49
2022/01/03 03:56:36;;;;;;;15.48;1.75;;;;;;;6.74;100.00;100309.63;5065748;28;20029;-49
2022/01/03 03:59:01;;;;;;;8.65;0.95;;;;;;;6.71;100.00;100318.69;5067978;28;20037;-53
2022/01/03 04:01:26;;;;;;;12.00;2.58;;;;;;;6.69;100.00;100325.94;5068172;28;20523;-52
2022/01/03 04:03:52;;;;;;;11.95;2.15;;;;;;;6.65;100.00;100314.09;5058116;28;20111;-52
2022/01/03 04:06:18;;;;;;;15.50;2.78;;;;;;;6.62;100.00;100308.34;5062054;28;20033;-50
2022/01/03 04:08:45;;;;;;;7.10;1.90;;;;;;;6.57;100.00;100313.31;5052986;28;20085;-53
2022/01/03 04:11:13;;;;;;;12.63;1.65;;;;;;;6.53;100.00;100307.53;5067939;28;20041;-53
2022/01/03 04:13:39;;;;;;;7.88;1.20;;;;;;;6.44;100.00;100304.09;5066351;28;20511;-53
2022/01/03 04:16:04;;;;;;;13.13;3.42;;;;;;;6.38;100.00;100306.59;5057776;28;20051;-52
2022/01/03 04:18:29;;;;;;;10.73;3.28;;;;;;;6.38;100.00;100310.06;5067716;28;20474;-52
2022/01/03 04:20:55;;;;;;;8.07;1.63;;;;;;;6.30;100.00;100299.53;5068704;28;20028;-51
2022/01/03 04:23:20;;;;;;;6.38;2.00;;;;;;;6.29;100.00;100301.31;5057653;28;20223;-50
2022/01/03 04:25:45;;;;;;;9.75;2.40;;;;;;;6.27;100.00;100300.69;5054395;28;20037;-50
2022/01/03 04:28:11;;;;;;;2.42;1.55;;;;;;;6.25;100.00;100305.31;5064965;28;20067;-52
2022/01/03 04:30:36;;;;;;;13.23;2.20;;;;;;;6.18;100.00;100292.97;5059526;28;20028;-54
2022/01/03 04:33:02;;;;;;;12.65;0.80;;;;;;;6.11;100.00;100285.72;5057038;28;20473;-53
2022/01/03 04:35:27;;;;;;;6.15;0.28;;;;;;;6.07;100.00;100275.72;5058410;28;20086;-53
2022/01/03 04:37:53;;;;;;;8.55;2.33;;;;;;;6.01;100.00;100277.19;5061944;28;20033;-54
2022/01/03 04:40:18;;;;;;;6.43;1.38;;;;;;;5.93;100.00;100274.53;5065615;28;20066;-53
2022/01/03 04:42:43;;;;;;;8.52;1.60;;;;;;;5.99;100.00;100276.53;5067743;28;20433;-54
2022/01/03 04:45:09;;;;;;;9.48;2.05;;;;;;;5.95;100.00;100269.97;5050093;28;20091;-52
2022/01/03 04:47:34;;;;;;;7.70;0.95;;;;;;;5.86;100.00;100281.44;5058427;28;20482;-53
2022/01/03 04:50:00;;;;;;;3.72;0.60;;;;;;;5.80;100.00;100290.00;5062030;28;20492;-49
2022/01/03 04:52:25;;;;;;;9.45;0.75;;;;;;;5.73;100.00;100299.53;5067581;28;20051;-52
2022/01/03 04:54:51;;;;;;;22.80;2.67;;;;;;;5.77;100.00;100301.66;5059507;28;20466;-52
2022/01/03 04:57:16;;;;;;;17.48;1.85;;;;;;;5.81;100.00;100297.75;5063987;28;20481;-48
2022/01/03 04:59:41;;;;;;;5.65;0.95;;;;;;;5.77;100.00;100292.97;5057307;28;20040;-50
2022/01/03 05:02:07;;;;;;;4.53;0.68;;;;;;;5.68;100.00;100292.16;5054301;28;20628;-52
2022/01/03 05:04:32;;;;;;;5.20;0.73;;;;;;;5.69;100.00;100293.78;5060909;28;20036;-51
2022/01/03 05:06:58;;;;;;;11.30;1.05;;;;;;;5.76;100.00;100299.22;5064191;28;20039;-53
2022/01/03 05:09:23;;;;;;;10.88;0.55;;;;;;;5.81;100.00;100281.13;5061605;28;20583;-52
2022/01/03 05:11:48;;;;;;;7.10;1.10;;;;;;;5.82;100.00;100275.69;5065354;28;20378;-51
2022/01/03 05:14:14;;;;;;;10.02;2.20;;;;;;;5.81;100.00;100271.44;5054891;28;20068;-52
2022/01/03 05:16:39;;;;;;;3.95;0.98;;;;;;;5.81;100.00;100281.94;5065771;28;20034;-50
2022/01/03 05:19:05;;;;;;;4.82;0.90;;;;;;;5.85;100.00;100275.34;5059995;28;20068;-50
2022/01/03 05:21:30;;;;;;;5.43;0.40;;;;;;;5.84;100.00;100270.28;5052707;28;20387;-54
2022/01/03 05:23:55;;;;;;;8.98;1.27;;;;;;;5.83;100.00;100253.63;5056274;28;20145;-55
2022/01/03 05:26:21;;;;;;;11.93;1.15;;;;;;;5.77;100.00;100264.03;5061310;28;20108;-52
2022/01/03 05:28:47;;;;;;;6.25;1.20;;;;;;;5.69;100.00;100270.09;5063985;28;20095;-50
2022/01/03 05:31:13;;;;;;;7.65;1.65;;;;;;;5.72;100.00;100261.88;5059772;28;20390;-52
2022/01/03 05:33:38;;;;;;;8.60;0.75;;;;;;;5.79;100.00;100288.38;5058393;28;20452;-53
2022/01/03 05:36:04;;;;;;;15.50;1.85;;;;;;;5.84;100.00;100265.81;5059523;28;20032;-54
2022/01/03 05:38:30;;;;;;;4.32;1.00;;;;;;;5.83;100.00;100258.91;5061055;28;20056;-51
2022/01/03 05:40:55;;;;;;;6.80;1.13;;;;;;;5.82;100.00;100264.34;5060661;28;20177;-50
2022/01/03 05:43:21;;;;;;;7.45;2.63;;;;;;;5.81;100.00;100262.72;5059164;28;20032;-53
2022/01/03 05:45:46;;;;;;;10.75;2.80;;;;;;;5.79;100.00;100268.13;5063823;28;20500;-52
2022/01/03 05:48:11;;;;;;;9.57;2.78;;;;;;;5.75;100.00;100260.72;5065425;28;20080;-53
2022/01/03 05:50:37;;;;;;;12.93;0.98;;;;;;;5.77;100.00;100266.66;5063475;28;20039;-52
2022/01/03 05:53:02;;;;;;;10.45;1.48;;;;;;;5.81;100.00;100257.47;5059596;28;20503;-50
2022/01/03 05:55:28;;;;;;;8.60;1.58;;;;;;;5.82;100.00;100248.56;5059467;28;20032;-53
2022/01/03 05:57:54;;;;;;;8.25;1.45;;;;;;;5.73;100.00;100250.38;5066250;28;20047;-52
2022/01/03 06:00:22;;;;;;;5.43;1.60;;;;;;;5.67;100.00;100251.84;5062330;28;20037;-50
2022/01/03 06:02:53;;;;;;;11.55;1.77;;;;;;;5.59;100.00;100257.09;5062726;28;20056;-48
2022/01/03 06:05:39;;;;;;;7.20;1.58;;;;;;;5.54;100.00;100253.31;5089004;28;20036;-50
2022/01/03 06:08:04;;;;;;;10.10;2.17;;;;;;;5.55;100.00;100255.81;5056313;28;20040;-51
2022/01/03 06:10:30;;;;;;;8.93;2.17;;;;;;;5.58;100.00;100257.28;5060399;28;20425;-51
2022/01/03 06:12:56;;;;;;;14.77;1.10;;;;;;;5.58;100.00;100250.22;5058935;28;20082;-52
2022/01/03 06:15:25;;;;;;;13.60;2.03;;;;;;;5.52;100.00;100245.59;5057931;28;20028;-49
2022/01/03 06:17:51;;;;;;;9.98;2.35;;;;;;;5.45;100.00;100245.44;5052416;28;20452;-49
2022/01/03 06:20:17;;;;;;;8.65;0.85;;;;;;;5.53;100.00;100238.56;5048662;28;20040;-48
2022/01/03 06:22:43;;;;;;;7.35;1.15;;;;;;;5.56;100.00;100238.22;5066065;28;20432;-49
2022/01/03 06:25:10;;;;;;;8.77;1.30;;;;;;;5.64;100.00;100243.47;5056674;28;20051;-53
2022/01/03 06:27:37;;;;;;;14.80;2.70;;;;;;;5.61;100.00;100228.84;5054084;28;20378;-51
2022/01/03 06:30:04;;;;;;;6.90;0.40;;;;;;;5.54;100.00;100233.09;5053107;28;20043;-51
2022/01/03 06:32:30;;;;;;;11.90;2.17;;;;;;;5.52;100.00;100237.69;5062064;28;20035;-53
2022/01/03 06:34:55;;;;;;;12.18;2.67;;;;;;;5.53;100.00;100235.91;5057044;28;20037;-52
2022/01/03 06:37:20;;;;;;;9.60;0.93;;;;;;;5.58;100.00;100238.88;5058083;28;20021;-54
2022/01/03 06:39:46;;;;;;;10.18;2.08;;;;;;;5.59;100.00;100235.25;5055310;28;20051;-55
2022/01/03 06:42:11;;;;;;;5.18;0.88;;;;;;;5.66;100.00;100226.53;5056089;28;20033;-50
2022/01/03 06:44:37;;;;;;;3.08;1.25;;;;;;;5.68;100.00;100214.03;5056466;28;20537;-49
2022/01/03 06:47:02;;;;;;;10.57;1.05;;;;;;;5.65;100.00;100221.44;5049419;28;20466;-51
2022/01/03 06:49:28;;;;;;;1.45;0.73;;;;;;;5.52;100.00;100215.84;5053679;28;20055;-53
2022/01/03 06:51:53;;;;;;;13.43;1.38;;;;;;;5.45;100.00;100221.78;5056885;28;20051;-52
2022/01/03 06:54:18;;;;;;;9.98;2.47;;;;;;;5.33;100.00;100224.88;5052096;28;20158;-52
2022/01/03 06:56:44;;;;;;;2.58;0.88;;;;;;;5.19;100.00;100221.09;5057778;28;20086;-49
2022/01/03 06:59:10;;;;;;;5.65;1.85;;;;;;;5.10;100.00;100232.56;5060442;28;20493;-52
2022/01/03 07:01:36;;;;;;;5.10;1.35;;;;;;;5.06;100.00;100239.97;5054093;28;20044;-53
2022/01/03 07:04:02;;;;;;;8.38;0.70;;;;;;;5.11;100.00;100223.69;5062478;28;20032;-51
2022/01/03 07:06:28;;;;;;;9.75;0.63;;;;;;;5.08;100.00;100232.72;5061725;28;20063;-49
2022/01/03 07:08:53;;;;;;;7.93;2.38;;;;;;;5.06;100.00;100237.34;5059496;28;20133;-51
2022/01/03 07:11:19;;;;;;;19.92;3.30;;;;;;;5.09;100.00;100230.94;5056702;28;20115;-50
2022/01/03 07:13:48;;;;;;;3.47;0.93;;;;;;;5.06;100.00;100237.34;5050565;28;20466;-53
2022/01/03 07:19:00;;;;;;;7.93;1.23;;;;;;;4.98;100.00;100230.25;5054890;28;20163;-51
2022/01/03 07:21:30;;;;;;;11.88;2.10;;;;;;;4.90;100.00;100222.34;5054790;28;20577;-51
2022/01/03 07:23:57;;;;;;;7.83;2.40;;;;;;;4.94;100.00;100215.78;5049162;28;20036;-51
2022/01/03 07:26:24;;;;;;;5.50;0.68;;;;;;;4.91;100.00;100210.84;5061328;28;20112;-50
2022/01/03 07:28:50;;;;;;;6.00;1.42;;;;;;;4.95;100.00;100216.59;5062774;28;20147;-52
2022/01/03 07:31:16;;;;;;;8.35;1.25;;;;;;;4.98;100.00;100218.91;5058298;28;20039;-50
2022/01/03 07:33:42;;;;;;;5.10;0.70;;;;;;;5.09;100.00;100221.25;5048939;28;20055;-51
2022/01/03 07:36:08;;;;;;;14.48;1.30;;;;;;;5.14;100.00;100226.03;5059174;28;20842;-48
2022/01/03 07:38:33;;;;;;;7.75;2.35;;;;;;;5.19;100.00;100219.28;5063144;28;20040;-51
2022/01/03 07:40:59;;;;;;;4.63;0.60;;;;;;;5.22;100.00;100224.22;5060477;28;20051;-50
2022/01/03 07:43:24;;;;;;;8.10;1.98;;;;;;;5.15;100.00;100223.22;5053521;28;20017;-52
2022/01/03 07:45:50;;;;;;;10.90;2.92;;;;;;;5.13;100.00;100217.28;5049158;28;20033;-51
2022/01/03 07:48:15;;;;;;;9.50;0.80;;;;;;;5.14;100.00;100211.06;5064761;28;20111;-51
2022/01/03 07:50:40;;;;;;;5.93;0.47;;;;;;;5.13;100.00;100213.84;5058379;28;20133;-51
2022/01/03 07:53:07;;;;;;;11.23;2.00;;;;;;;5.16;100.00;100213.53;5059180;28;20033;-48
2022/01/03 07:55:33;;;;;;;6.78;2.38;;;;;;;5.09;100.00;100212.53;5046883;28;20029;-53
2022/01/03 07:57:58;;;;;;;7.18;3.50;;;;;;;5.00;100.00;100206.44;5058828;28;20044;-51
2022/01/03 08:00:24;;;;;;;10.93;1.38;;;;;;;4.88;100.00;100212.97;5050099;28;20025;-51
2022/01/03 08:02:49;;;;;;;13.38;1.50;;;;;;;4.76;100.00;100215.09;5054703;28;20043;-51
2022/01/03 08:05:15;;;;;;;10.77;1.60;;;;;;;4.68;100.00;100205.38;5048165;28;20065;-52
2022/01/03 08:07:42;;;;;;;11.07;0.93;;;;;;;4.67;100.00;100200.28;5055824;28;20032;-49
2022/01/03 08:10:10;;;;;;;9.10;1.92;;;;;;;4.66;100.00;100198.63;5060461;28;20028;-50
2022/01/03 08:12:37;;;;;;;11.60;0.73;;;;;;;4.79;100.00;100201.63;5056219;28;20025;-50
2022/01/03 08:15:04;;;;;;;6.00;1.05;;;;;;;4.88;100.00;100205.09;5061328;28;20116;-52
2022/01/03 08:17:30;;;;;;;11.35;0.70;;;;;;;4.80;100.00;100198.00;5052688;28;20032;-53
2022/01/03 08:19:55;;;;;;;8.00;0.88;;;;;;;4.79;100.00;100197.19;5059287;28;20390;-52
2022/01/03 08:22:20;;;;;;;4.70;2.35;;;;;;;4.77;100.00;100198.34;5055602;28;20025;-50
2022/01/03 08:24:46;;;;;;;10.65;2.45;;;;;;;4.90;100.00;100197.88;5060187;28;20135;-52
2022/01/03 08:27:11;;;;;;;12.13;1.00;;;;;;;4.90;100.00;100198.69;5050073;28;20033;-54
2022/01/03 08:29:37;;;;;;;6.10;1.33;;;;;;;4.89;100.00;100194.44;5063245;28;20040;-49
2022/01/03 08:32:03;;;;;;;4.90;0.75;;;;;;;4.88;100.00;100187.53;5063211;28;20037;-54
2022/01/03 08:34:28;;;;;;;12.88;1.17;;;;;;;4.85;100.00;100194.91;5051961;28;20769;-54
2022/01/03 08:36:54;;;;;;;3.40;0.55;;;;;;;4.87;100.00;100199.00;5047484;28;20025;-51
2022/01/03 08:39:19;;;;;;;10.52;1.85;;;;;;;5.08;100.00;100195.13;5059053;28;20024;-52
2022/01/03 08:41:44;;;;;;;12.05;3.53;;;;;;;5.26;100.00;100187.91;5063423;28;20051;-52
2022/01/03 08:44:10;;;;;;;10.07;2.10;;;;;;;5.44;100.00;100177.22;5050659;28;20066;-49
2022/01/03 08:46:35;;;;;;;9.50;1.80;;;;;;;5.55;100.00;100186.59;5060423;28;20052;-51
2022/01/03 08:49:01;;;;;;;7.68;1.75;;;;;;;5.55;100.00;100170.81;5064438;28;20020;-53
2022/01/03 08:51:26;;;;;;;3.90;1.02;;;;;;;5.50;100.00;100178.38;5057896;28;20028;-52
2022/01/03 08:53:52;;;;;;;9.57;2.30;;;;;;;5.54;100.00;100175.25;5064526;28;20127;-51
2022/01/03 08:56:18;;;;;;;9.73;2.00;;;;;;;5.65;100.00;100172.28;5061808;28;20097;-52
2022/01/03 08:58:43;;;;;;;17.23;1.38;;;;;;;5.68;100.00;100163.25;5062609;28;20036;-49
2022/01/03 09:01:09;;;;;;;16.27;3.65;;;;;;;5.68;100.00;100165.88;5052452;28;20437;-50
2022/01/03 09:03:34;;;;;;;19.00;2.97;;;;;;;5.75;100.00;100163.38;5060471;28;20036;-52
2022/01/03 09:06:00;;;;;;;12.75;2.95;;;;;;;5.81;100.00;100168.00;5062126;28;20028;-52
2022/01/03 09:08:25;;;;;;;11.15;1.63;;;;;;;5.83;100.00;100173.88;5058507;28;20489;-53
2022/01/03 09:10:51;;;;;;;9.63;1.20;;;;;;;5.78;100.00;100171.78;5063780;28;20101;-51
2022/01/03 09:13:17;;;;;;;12.15;3.60;;;;;;;5.85;100.00;100169.28;5060851;28;20037;-49
2022/01/03 09:15:46;;;;;;;10.73;1.75;;;;;;;5.87;100.00;100165.50;5054333;28;20095;-53
2022/01/03 09:18:12;;;;;;;8.00;1.27;;;;;;;5.86;100.00;100174.41;5060986;28;20044;-52
2022/01/03 09:20:38;;;;;;;11.45;1.42;;;;;;;5.94;100.00;100170.97;5091545;28;20036;-54
2022/01/03 09:23:12;;;;;;;3.58;1.08;;;;;;;6.02;100.00;100176.19;5051309;28;20021;-53
2022/01/03 09:30:51;;;;;;;11.75;2.85;;;;;;;6.17;100.00;100181.59;5063254;28;20050;-51
2022/01/03 09:33:17;;;;;;;9.50;1.65;;;;;;;6.19;100.00;100182.22;5053908;28;20041;-50
2022/01/03 09:35:43;;;;;;;14.07;2.92;;;;;;;6.21;100.00;100179.44;5059160;28;20016;-54
2022/01/03 09:38:09;;;;;;;9.10;1.08;;;;;;;6.24;100.00;100181.72;5062179;28;20055;-51
2022/01/03 09:40:38;;;;;;;15.68;3.55;;;;;;;6.33;100.00;100181.53;5057880;28;20120;-51
2022/01/03 09:43:04;;;;;;;8.15;1.13;;;;;;;6.36;100.00;100171.66;5054444;28;20515;-50
2022/01/03 09:45:34;;;;;;;7.55;1.88;;;;;;;6.40;100.00;100172.94;5058417;28;20074;-54
2022/01/03 09:48:02;;;;;;;5.35;2.53;;;;;;;6.43;100.00;100167.31;5058687;28;20469;-52
2022/01/03 09:50:31;;;;;;;4.35;1.40;;;;;;;6.44;100.00;100172.41;5062741;28;20116;-54
2022/01/03 09:52:57;;;;;;;8.10;1.63;;;;;;;6.51;100.00;100176.00;5064543;28;20074;-52
2022/01/03 09:55:23;;;;;;;8.82;1.55;;;;;;;6.57;100.00;100179.78;5062627;28;20025;-54
2022/01/03 09:57:49;;;;;;;12.07;3.10;;;;;;;6.63;100.00;100175.63;5062856;28;20458;-51
2022/01/03 10:00:22;;;;;;;10.75;3.25;;;;;;;6.71;100.00;100168.50;5061575;28;20501;-50
2022/01/03 10:02:51;;;;;;;4.70;1.48;;;;;;;6.81;100.00;100164.81;5065642;28;20122;-49
2022/01/03 10:05:17;;;;;;;8.32;1.05;;;;;;;6.85;100.00;100158.22;5058871;28;20040;-53
2022/01/03 10:07:42;;;;;;;9.13;1.92;;;;;;;6.85;100.00;100158.22;5065670;28;20032;-52
2022/01/03 10:10:09;;;;;;;5.90;0.47;;;;;;;6.88;100.00;100163.94;5060924;28;20044;-51
2022/01/03 10:12:36;;;;;;;10.57;1.45;;;;;;;6.92;100.00;100151.25;5065154;28;20082;-54
2022/01/03 10:15:05;;;;;;;13.50;1.20;;;;;;;6.96;100.00;100155.97;5062322;28;20451;-54
2022/01/03 10:17:34;;;;;;;5.13;0.93;;;;;;;6.98;100.00;100153.19;5065959;28;20085;-49
2022/01/03 10:20:02;;;;;;;7.78;0.63;;;;;;;7.02;100.00;100149.19;5054677;28;20059;-49
2022/01/03 10:22:31;;;;;;;5.10;2.10;;;;;;;7.09;100.00;100134.31;5063366;28;20040;-49
2022/01/03 10:25:00;;;;;;;2.03;0.30;;;;;;;7.14;100.00;100141.69;5060435;28;20062;-51
2022/01/03 10:27:44;;;;;;;7.90;0.40;;;;;;;7.16;100.00;100135.25;5062263;28;20493;-54
2022/01/03 10:30:10;;;;;;;2.50;1.33;;;;;;;7.18;100.00;100137.72;5050380;28;20083;-51
2022/01/03 10:32:36;;;;;;;5.60;1.20;;;;;;;7.24;100.00;100144.09;5063091;28;20020;-51
2022/01/03 10:35:21;;;;;;;7.70;0.88;;;;;;;7.26;100.00;100139.47;5056312;28;20020;-50
2022/01/03 10:37:48;;;;;;;3.88;0.30;;;;;;;7.27;100.00;100138.47;5057561;28;20076;-50
2022/01/03 10:40:27;;;;;;;12.95;1.08;;;;;;;7.33;100.00;100140.38;5055182;28;20095;-51
2022/01/03 10:42:54;;;;;;;4.97;0.40;;;;;;;7.43;100.00;100136.50;5060874;28;20044;-51
2022/01/03 10:45:31;;;;;;;3.17;0.10;;;;;;;7.47;100.00;100131.69;5053939;28;20056;-51
2022/01/03 10:47:56;;;;;;;7.95;1.35;;;;;;;7.47;100.00;100136.97;5051037;28;20032;-52
2022/01/03 10:50:22;;;;;;;0.52;0.20;;;;;;;7.50;100.00;100133.97;5057233;28;20432;-53
2022/01/03 10:52:49;;;;;;;4.68;0.57;;;;;;;7.52;100.00;100131.97;5060595;28;20563;-48
2022/01/03 10:55:20;;;;;;;0.50;0.10;;;;;;;7.58;100.00;100123.31;5057211;28;20078;-49
2022/01/03 10:57:59;;;;;;;1.92;0.98;;;;;;;7.60;100.00;100123.97;5049648;28;20033;-51
2022/01/03 11:00:30;;;;;;;2.20;0.95;;;;;;;7.62;100.00;100123.81;5054273;28;20036;-51
2022/01/03 11:03:07;;;;;;;9.05;0.95;;;;;;;7.64;100.00;100119.13;5055125;28;20032;-53
2022/01/03 11:05:37;;;;;;;2.72;0.10;;;;;;;7.64;100.00;100120.00;5052136;28;20033;-52
2022/01/03 11:10:47;;;;;;;2.85;1.17;;;;;;;7.65;100.00;100112.88;5056998;28;20514;-50
2022/01/03 11:13:20;;;;;;;6.15;0.20;;;;;;;7.71;100.00;100111.34;5057688;28;20034;-49
2022/01/03 11:15:57;;;;;;;8.70;1.17;;;;;;;7.73;100.00;100110.16;5046690;28;20355;-52
2022/01/03 11:18:29;;;;;;;3.95;0.77;;;;;;;7.77;100.00;100118.50;5054469;28;20047;-52
2022/01/03 11:21:16;;;;;;;4.35;0.43;;;;;;;7.83;100.00;100096.69;5054183;28;20066;-51
2022/01/03 11:24:24;;;;;;;3.78;0.57;;;;;;;7.92;100.00;100100.03;5051136;28;20402;-53
2022/01/03 11:26:51;;;;;;;2.30;0.30;;;;;;;7.99;100.00;100088.56;4995766;28;20069;-54
2022/01/03 11:29:17;;;;;;;4.82;1.23;;;;;;;8.03;100.00;100105.69;4998006;28;20040;-51
2022/01/03 11:31:43;;;;;;;2.08;0.13;;;;;;;8.04;100.00;100099.41;5019855;28;20041;-51
2022/01/03 11:34:12;;;;;;;6.30;1.30;;;;;;;8.06;100.00;100093.94;5053152;28;20115;-52
2022/01/03 11:36:40;;;;;;;1.10;0.10;;;;;;;8.09;100.00;100086.47;5060751;28;20081;-51